sensor_id;sensor_type;location;lat;lon;timestamp;P1;durP1;ratioP1;P2;durP2;ratioP2
17372;SDS011;8803;48.116;11.590;2023-11-21T00:01:40;4.70;;;1.53;;
17372;SDS011;8803;48.116;11.590;2023-11-21T00:03:44;2.63;;;1.23;;
17372;SDS011;8803;48.116;11.590;2023-11-21T00:05:57;1.73;;;1.10;;
17372;SDS011;8803;48.116;11.590;2023-11-21T00:08:04;2.83;;;1.23;;
17372;SDS011;8803;48.116;11.590;2023-11-21T00:10:17;4.70;;;1.67;;
17372;SDS011;8803;48.116;11.590;2023-11-21T00:12:21;4.07;;;1.30;;
17372;SDS011;8803;48.116;11.590;2023-11-21T00:14:26;3.17;;;1.20;;
17372;SDS011;8803;48.116;11.590;2023-11-21T00:16:30;5.40;;;1.60;;
17372;SDS011;8803;48.116;11.590;2023-11-21T00:18:35;3.17;;;1.53;;
17372;SDS011;8803;48.116;11.590;2023-11-21T00:20:39;4.63;;;1.50;;
17372;SDS011;8803;48.116;11.590;2023-11-21T00:22:44;3.60;;;1.40;;
17372;SDS011;8803;48.116;11.590;2023-11-21T00:24:56;2.83;;;1.17;;
17372;SDS011;8803;48.116;11.590;2023-11-21T00:27:01;3.03;;;1.17;;
17372;SDS011;8803;48.116;11.590;2023-11-21T00:29:07;5.23;;;1.50;;
17372;SDS011;8803;48.116;11.590;2023-11-21T00:31:12;3.40;;;1.27;;
17372;SDS011;8803;48.116;11.590;2023-11-21T00:33:16;3.30;;;1.23;;
17372;SDS011;8803;48.116;11.590;2023-11-21T00:35:21;3.20;;;1.50;;
17372;SDS011;8803;48.116;11.590;2023-11-21T00:37:25;3.17;;;0.90;;
17372;SDS011;8803;48.116;11.590;2023-11-21T00:39:29;3.73;;;1.23;;
17372;SDS011;8803;48.116;11.590;2023-11-21T00:41:34;4.87;;;1.23;;
17372;SDS011;8803;48.116;11.590;2023-11-21T00:43:39;4.83;;;1.37;;
17372;SDS011;8803;48.116;11.590;2023-11-21T00:45:43;5.73;;;1.30;;
17372;SDS011;8803;48.116;11.590;2023-11-21T00:47:49;2.77;;;1.47;;
17372;SDS011;8803;48.116;11.590;2023-11-21T00:49:54;2.47;;;1.10;;
17372;SDS011;8803;48.116;11.590;2023-11-21T00:51:59;4.30;;;1.43;;
17372;SDS011;8803;48.116;11.590;2023-11-21T00:54:05;2.57;;;1.13;;
17372;SDS011;8803;48.116;11.590;2023-11-21T00:56:19;1.77;;;0.97;;
17372;SDS011;8803;48.116;11.590;2023-11-21T00:58:23;3.53;;;1.40;;
17372;SDS011;8803;48.116;11.590;2023-11-21T01:00:27;1.77;;;0.90;;
17372;SDS011;8803;48.116;11.590;2023-11-21T01:02:32;2.47;;;1.17;;
17372;SDS011;8803;48.116;11.590;2023-11-21T01:04:37;4.20;;;1.23;;
17372;SDS011;8803;48.116;11.590;2023-11-21T01:06:42;2.80;;;1.30;;
17372;SDS011;8803;48.116;11.590;2023-11-21T01:08:55;3.37;;;1.97;;
17372;SDS011;8803;48.116;11.590;2023-11-21T01:10:59;3.00;;;1.30;;
17372;SDS011;8803;48.116;11.590;2023-11-21T01:13:03;2.10;;;1.30;;
17372;SDS011;8803;48.116;11.590;2023-11-21T01:15:08;2.57;;;1.37;;
17372;SDS011;8803;48.116;11.590;2023-11-21T01:17:14;1.37;;;0.90;;
17372;SDS011;8803;48.116;11.590;2023-11-21T01:19:19;2.80;;;1.00;;
17372;SDS011;8803;48.116;11.590;2023-11-21T01:21:24;2.90;;;1.20;;
17372;SDS011;8803;48.116;11.590;2023-11-21T01:23:29;4.03;;;1.30;;
17372;SDS011;8803;48.116;11.590;2023-11-21T01:25:42;3.03;;;1.40;;
17372;SDS011;8803;48.116;11.590;2023-11-21T01:27:46;3.67;;;1.20;;
17372;SDS011;8803;48.116;11.590;2023-11-21T01:29:51;3.87;;;1.33;;
17372;SDS011;8803;48.116;11.590;2023-11-21T01:32:05;2.63;;;1.30;;
17372;SDS011;8803;48.116;11.590;2023-11-21T01:34:11;3.37;;;1.20;;
17372;SDS011;8803;48.116;11.590;2023-11-21T01:36:15;4.50;;;1.47;;
17372;SDS011;8803;48.116;11.590;2023-11-21T01:38:20;1.50;;;1.07;;
17372;SDS011;8803;48.116;11.590;2023-11-21T01:40:25;3.70;;;1.37;;
17372;SDS011;8803;48.116;11.590;2023-11-21T01:42:30;4.73;;;1.50;;
17372;SDS011;8803;48.116;11.590;2023-11-21T01:44:35;4.97;;;1.30;;
17372;SDS011;8803;48.116;11.590;2023-11-21T01:46:40;1.53;;;1.20;;
17372;SDS011;8803;48.116;11.590;2023-11-21T01:48:44;3.07;;;1.50;;
17372;SDS011;8803;48.116;11.590;2023-11-21T01:50:49;2.70;;;1.10;;
17372;SDS011;8803;48.116;11.590;2023-11-21T01:52:54;3.17;;;1.43;;
17372;SDS011;8803;48.116;11.590;2023-11-21T01:54:59;3.47;;;0.90;;
17372;SDS011;8803;48.116;11.590;2023-11-21T01:57:05;3.60;;;1.43;;
17372;SDS011;8803;48.116;11.590;2023-11-21T01:59:19;4.30;;;1.47;;
17372;SDS011;8803;48.116;11.590;2023-11-21T02:01:25;4.13;;;1.37;;
17372;SDS011;8803;48.116;11.590;2023-11-21T02:03:29;5.20;;;2.03;;
17372;SDS011;8803;48.116;11.590;2023-11-21T02:05:33;3.07;;;1.03;;
17372;SDS011;8803;48.116;11.590;2023-11-21T02:07:38;3.40;;;1.20;;
17372;SDS011;8803;48.116;11.590;2023-11-21T02:09:43;2.87;;;1.50;;
17372;SDS011;8803;48.116;11.590;2023-11-21T02:11:49;1.93;;;1.00;;
17372;SDS011;8803;48.116;11.590;2023-11-21T02:13:55;6.10;;;1.57;;
17372;SDS011;8803;48.116;11.590;2023-11-21T02:15:59;2.17;;;1.20;;
17372;SDS011;8803;48.116;11.590;2023-11-21T02:18:06;3.63;;;1.30;;
17372;SDS011;8803;48.116;11.590;2023-11-21T02:20:12;4.40;;;1.40;;
17372;SDS011;8803;48.116;11.590;2023-11-21T02:22:19;3.40;;;1.43;;
17372;SDS011;8803;48.116;11.590;2023-11-21T02:24:25;1.60;;;1.17;;
17372;SDS011;8803;48.116;11.590;2023-11-21T02:26:29;2.23;;;1.20;;
17372;SDS011;8803;48.116;11.590;2023-11-21T02:28:34;3.93;;;1.60;;
17372;SDS011;8803;48.116;11.590;2023-11-21T02:30:40;3.63;;;1.17;;
17372;SDS011;8803;48.116;11.590;2023-11-21T02:32:44;5.50;;;1.50;;
17372;SDS011;8803;48.116;11.590;2023-11-21T02:34:49;3.27;;;1.30;;
17372;SDS011;8803;48.116;11.590;2023-11-21T02:36:54;5.57;;;1.73;;
17372;SDS011;8803;48.116;11.590;2023-11-21T02:38:59;4.57;;;1.53;;
17372;SDS011;8803;48.116;11.590;2023-11-21T02:41:04;6.07;;;1.70;;
17372;SDS011;8803;48.116;11.590;2023-11-21T02:43:08;3.93;;;1.70;;
17372;SDS011;8803;48.116;11.590;2023-11-21T02:45:12;4.17;;;1.30;;
17372;SDS011;8803;48.116;11.590;2023-11-21T02:47:25;3.23;;;1.50;;
17372;SDS011;8803;48.116;11.590;2023-11-21T02:49:30;3.70;;;1.27;;
17372;SDS011;8803;48.116;11.590;2023-11-21T02:51:36;3.73;;;1.37;;
17372;SDS011;8803;48.116;11.590;2023-11-21T02:53:41;2.20;;;1.40;;
17372;SDS011;8803;48.116;11.590;2023-11-21T02:55:45;4.20;;;1.40;;
17372;SDS011;8803;48.116;11.590;2023-11-21T02:57:50;3.50;;;1.40;;
17372;SDS011;8803;48.116;11.590;2023-11-21T02:59:54;6.33;;;1.30;;
17372;SDS011;8803;48.116;11.590;2023-11-21T03:01:59;5.60;;;2.77;;
17372;SDS011;8803;48.116;11.590;2023-11-21T03:04:03;4.83;;;2.50;;
17372;SDS011;8803;48.116;11.590;2023-11-21T03:06:09;5.10;;;2.60;;
17372;SDS011;8803;48.116;11.590;2023-11-21T03:08:13;3.23;;;1.77;;
17372;SDS011;8803;48.116;11.590;2023-11-21T03:10:18;2.87;;;1.27;;
17372;SDS011;8803;48.116;11.590;2023-11-21T03:12:22;4.30;;;1.47;;
17372;SDS011;8803;48.116;11.590;2023-11-21T03:14:35;4.40;;;1.70;;
17372;SDS011;8803;48.116;11.590;2023-11-21T03:16:39;3.00;;;1.70;;
17372;SDS011;8803;48.116;11.590;2023-11-21T03:18:46;3.50;;;1.20;;
17372;SDS011;8803;48.116;11.590;2023-11-21T03:20:59;3.00;;;1.33;;
17372;SDS011;8803;48.116;11.590;2023-11-21T03:23:04;2.87;;;1.40;;
17372;SDS011;8803;48.116;11.590;2023-11-21T03:25:10;2.83;;;1.13;;
17372;SDS011;8803;48.116;11.590;2023-11-21T03:27:23;3.67;;;1.03;;
17372;SDS011;8803;48.116;11.590;2023-11-21T03:29:28;2.40;;;1.27;;
17372;SDS011;8803;48.116;11.590;2023-11-21T03:31:33;7.40;;;3.87;;
17372;SDS011;8803;48.116;11.590;2023-11-21T03:33:38;9.73;;;6.13;;
17372;SDS011;8803;48.116;11.590;2023-11-21T03:35:42;7.13;;;3.47;;
17372;SDS011;8803;48.116;11.590;2023-11-21T03:37:47;4.73;;;2.77;;
17372;SDS011;8803;48.116;11.590;2023-11-21T03:39:51;2.20;;;1.50;;
17372;SDS011;8803;48.116;11.590;2023-11-21T03:41:57;3.73;;;1.27;;
17372;SDS011;8803;48.116;11.590;2023-11-21T03:44:02;1.50;;;0.83;;
17372;SDS011;8803;48.116;11.590;2023-11-21T03:46:15;1.83;;;0.83;;
17372;SDS011;8803;48.116;11.590;2023-11-21T03:48:19;4.37;;;1.57;;
17372;SDS011;8803;48.116;11.590;2023-11-21T03:50:24;3.60;;;0.93;;
17372;SDS011;8803;48.116;11.590;2023-11-21T03:52:37;2.83;;;0.90;;
17372;SDS011;8803;48.116;11.590;2023-11-21T03:54:41;2.37;;;1.07;;
17372;SDS011;8803;48.116;11.590;2023-11-21T03:56:46;3.93;;;0.80;;
17372;SDS011;8803;48.116;11.590;2023-11-21T03:58:59;2.20;;;1.13;;
17372;SDS011;8803;48.116;11.590;2023-11-21T04:01:05;1.87;;;0.90;;
17372;SDS011;8803;48.116;11.590;2023-11-21T04:03:10;1.77;;;0.80;;
17372;SDS011;8803;48.116;11.590;2023-11-21T04:05:23;2.27;;;0.93;;
17372;SDS011;8803;48.116;11.590;2023-11-21T04:07:27;2.30;;;0.70;;
17372;SDS011;8803;48.116;11.590;2023-11-21T04:11:43;3.07;;;1.13;;
17372;SDS011;8803;48.116;11.590;2023-11-21T04:13:47;1.80;;;1.07;;
17372;SDS011;8803;48.116;11.590;2023-11-21T04:15:52;2.50;;;1.10;;
17372;SDS011;8803;48.116;11.590;2023-11-21T04:18:05;1.60;;;1.00;;
17372;SDS011;8803;48.116;11.590;2023-11-21T04:20:10;2.17;;;1.00;;
17372;SDS011;8803;48.116;11.590;2023-11-21T04:22:14;2.10;;;0.97;;
17372;SDS011;8803;48.116;11.590;2023-11-21T04:24:27;1.87;;;1.00;;
17372;SDS011;8803;48.116;11.590;2023-11-21T04:26:32;2.03;;;0.80;;
17372;SDS011;8803;48.116;11.590;2023-11-21T04:28:36;2.33;;;1.03;;
17372;SDS011;8803;48.116;11.590;2023-11-21T04:30:41;3.10;;;0.90;;
17372;SDS011;8803;48.116;11.590;2023-11-21T04:32:54;3.17;;;1.20;;
17372;SDS011;8803;48.116;11.590;2023-11-21T04:34:58;4.13;;;1.23;;
17372;SDS011;8803;48.116;11.590;2023-11-21T04:37:11;2.87;;;1.20;;
17372;SDS011;8803;48.116;11.590;2023-11-21T04:39:16;2.83;;;1.10;;
17372;SDS011;8803;48.116;11.590;2023-11-21T04:41:21;3.30;;;1.37;;
17372;SDS011;8803;48.116;11.590;2023-11-21T04:43:25;2.50;;;1.10;;
17372;SDS011;8803;48.116;11.590;2023-11-21T04:45:30;3.03;;;0.83;;
17372;SDS011;8803;48.116;11.590;2023-11-21T04:47:34;3.20;;;0.93;;
17372;SDS011;8803;48.116;11.590;2023-11-21T04:49:39;1.37;;;0.70;;
17372;SDS011;8803;48.116;11.590;2023-11-21T04:51:52;2.53;;;1.07;;
17372;SDS011;8803;48.116;11.590;2023-11-21T04:53:57;2.40;;;1.00;;
17372;SDS011;8803;48.116;11.590;2023-11-21T04:56:01;3.10;;;1.10;;
17372;SDS011;8803;48.116;11.590;2023-11-21T04:58:07;2.07;;;0.80;;
17372;SDS011;8803;48.116;11.590;2023-11-21T05:00:20;1.90;;;0.70;;
17372;SDS011;8803;48.116;11.590;2023-11-21T05:02:24;3.33;;;1.10;;
17372;SDS011;8803;48.116;11.590;2023-11-21T05:04:37;0.97;;;0.80;;
17372;SDS011;8803;48.116;11.590;2023-11-21T05:06:43;3.80;;;0.90;;
17372;SDS011;8803;48.116;11.590;2023-11-21T05:08:49;2.77;;;1.10;;
17372;SDS011;8803;48.116;11.590;2023-11-21T05:10:53;1.60;;;0.63;;
17372;SDS011;8803;48.116;11.590;2023-11-21T05:12:57;1.50;;;0.90;;
17372;SDS011;8803;48.116;11.590;2023-11-21T05:15:05;2.37;;;0.90;;
17372;SDS011;8803;48.116;11.590;2023-11-21T05:17:12;1.23;;;0.73;;
17372;SDS011;8803;48.116;11.590;2023-11-21T05:19:16;2.00;;;0.83;;
17372;SDS011;8803;48.116;11.590;2023-11-21T05:21:20;3.97;;;1.20;;
17372;SDS011;8803;48.116;11.590;2023-11-21T05:23:26;1.73;;;1.10;;
17372;SDS011;8803;48.116;11.590;2023-11-21T05:25:30;2.30;;;1.07;;
17372;SDS011;8803;48.116;11.590;2023-11-21T05:27:35;1.57;;;0.80;;
17372;SDS011;8803;48.116;11.590;2023-11-21T05:29:39;1.83;;;0.70;;
17372;SDS011;8803;48.116;11.590;2023-11-21T05:31:44;2.27;;;1.00;;
17372;SDS011;8803;48.116;11.590;2023-11-21T05:33:48;2.63;;;0.97;;
17372;SDS011;8803;48.116;11.590;2023-11-21T05:35:52;1.20;;;0.87;;
17372;SDS011;8803;48.116;11.590;2023-11-21T05:37:56;2.03;;;0.93;;
17372;SDS011;8803;48.116;11.590;2023-11-21T05:40:01;1.67;;;0.80;;
17372;SDS011;8803;48.116;11.590;2023-11-21T05:42:07;1.60;;;0.70;;
17372;SDS011;8803;48.116;11.590;2023-11-21T05:44:20;1.53;;;1.10;;
17372;SDS011;8803;48.116;11.590;2023-11-21T05:46:25;1.77;;;0.80;;
17372;SDS011;8803;48.116;11.590;2023-11-21T05:48:29;1.90;;;0.90;;
17372;SDS011;8803;48.116;11.590;2023-11-21T05:50:33;1.17;;;0.80;;
17372;SDS011;8803;48.116;11.590;2023-11-21T05:52:39;1.93;;;0.80;;
17372;SDS011;8803;48.116;11.590;2023-11-21T05:54:52;2.30;;;0.90;;
17372;SDS011;8803;48.116;11.590;2023-11-21T05:56:56;0.70;;;0.70;;
17372;SDS011;8803;48.116;11.590;2023-11-21T05:59:01;2.33;;;0.87;;
17372;SDS011;8803;48.116;11.590;2023-11-21T06:01:07;1.87;;;0.80;;
17372;SDS011;8803;48.116;11.590;2023-11-21T06:03:13;2.17;;;1.00;;
17372;SDS011;8803;48.116;11.590;2023-11-21T06:05:19;1.40;;;0.80;;
17372;SDS011;8803;48.116;11.590;2023-11-21T06:07:25;3.67;;;0.97;;
17372;SDS011;8803;48.116;11.590;2023-11-21T06:09:30;2.23;;;1.00;;
17372;SDS011;8803;48.116;11.590;2023-11-21T06:11:36;1.70;;;0.80;;
17372;SDS011;8803;48.116;11.590;2023-11-21T06:13:40;1.87;;;0.97;;
17372;SDS011;8803;48.116;11.590;2023-11-21T06:15:45;1.80;;;0.70;;
17372;SDS011;8803;48.116;11.590;2023-11-21T06:17:49;2.77;;;1.27;;
17372;SDS011;8803;48.116;11.590;2023-11-21T06:20:08;2.70;;;1.70;;
17372;SDS011;8803;48.116;11.590;2023-11-21T06:22:15;1.83;;;1.63;;
17372;SDS011;8803;48.116;11.590;2023-11-21T06:24:19;4.17;;;1.40;;
17372;SDS011;8803;48.116;11.590;2023-11-21T06:26:24;2.97;;;1.30;;
17372;SDS011;8803;48.116;11.590;2023-11-21T06:28:29;1.87;;;1.00;;
17372;SDS011;8803;48.116;11.590;2023-11-21T06:30:34;2.20;;;0.80;;
17372;SDS011;8803;48.116;11.590;2023-11-21T06:32:47;2.13;;;0.97;;
17372;SDS011;8803;48.116;11.590;2023-11-21T06:34:52;1.40;;;0.90;;
17372;SDS011;8803;48.116;11.590;2023-11-21T06:37:05;0.83;;;0.80;;
17372;SDS011;8803;48.116;11.590;2023-11-21T06:39:09;2.60;;;0.90;;
17372;SDS011;8803;48.116;11.590;2023-11-21T06:41:15;1.37;;;0.90;;
17372;SDS011;8803;48.116;11.590;2023-11-21T06:43:28;2.97;;;0.90;;
17372;SDS011;8803;48.116;11.590;2023-11-21T06:45:33;1.73;;;0.90;;
17372;SDS011;8803;48.116;11.590;2023-11-21T06:47:46;1.93;;;1.10;;
17372;SDS011;8803;48.116;11.590;2023-11-21T06:49:51;2.13;;;1.00;;
17372;SDS011;8803;48.116;11.590;2023-11-21T06:51:56;2.23;;;0.90;;
17372;SDS011;8803;48.116;11.590;2023-11-21T06:54:00;2.60;;;0.90;;
17372;SDS011;8803;48.116;11.590;2023-11-21T06:56:14;2.17;;;0.80;;
17372;SDS011;8803;48.116;11.590;2023-11-21T06:58:27;1.47;;;0.80;;
17372;SDS011;8803;48.116;11.590;2023-11-21T07:00:31;3.53;;;1.07;;
17372;SDS011;8803;48.116;11.590;2023-11-21T07:02:36;1.47;;;0.90;;
17372;SDS011;8803;48.116;11.590;2023-11-21T07:04:40;1.90;;;1.00;;
17372;SDS011;8803;48.116;11.590;2023-11-21T07:06:45;2.37;;;0.97;;
17372;SDS011;8803;48.116;11.590;2023-11-21T07:08:49;1.93;;;1.03;;
17372;SDS011;8803;48.116;11.590;2023-11-21T07:10:54;1.63;;;0.83;;
17372;SDS011;8803;48.116;11.590;2023-11-21T07:12:58;1.40;;;0.83;;
17372;SDS011;8803;48.116;11.590;2023-11-21T07:15:11;1.67;;;1.13;;
17372;SDS011;8803;48.116;11.590;2023-11-21T07:17:16;0.97;;;0.63;;
17372;SDS011;8803;48.116;11.590;2023-11-21T07:19:20;1.90;;;0.63;;
17372;SDS011;8803;48.116;11.590;2023-11-21T07:21:24;2.13;;;0.80;;
17372;SDS011;8803;48.116;11.590;2023-11-21T07:23:29;1.00;;;0.60;;
17372;SDS011;8803;48.116;11.590;2023-11-21T07:25:34;1.53;;;0.90;;
17372;SDS011;8803;48.116;11.590;2023-11-21T07:27:38;1.40;;;0.90;;
17372;SDS011;8803;48.116;11.590;2023-11-21T07:29:43;1.80;;;0.90;;
17372;SDS011;8803;48.116;11.590;2023-11-21T07:31:47;2.43;;;1.00;;
17372;SDS011;8803;48.116;11.590;2023-11-21T07:33:52;1.00;;;0.80;;
17372;SDS011;8803;48.116;11.590;2023-11-21T07:35:58;1.43;;;0.70;;
17372;SDS011;8803;48.116;11.590;2023-11-21T07:38:02;2.50;;;0.87;;
17372;SDS011;8803;48.116;11.590;2023-11-21T07:40:09;2.87;;;0.90;;
17372;SDS011;8803;48.116;11.590;2023-11-21T07:42:22;2.87;;;1.00;;
17372;SDS011;8803;48.116;11.590;2023-11-21T07:44:28;2.93;;;0.97;;
17372;SDS011;8803;48.116;11.590;2023-11-21T07:46:33;1.33;;;0.80;;
17372;SDS011;8803;48.116;11.590;2023-11-21T07:48:37;1.67;;;0.80;;
17372;SDS011;8803;48.116;11.590;2023-11-21T07:50:51;1.33;;;0.80;;
17372;SDS011;8803;48.116;11.590;2023-11-21T07:52:55;2.57;;;0.73;;
17372;SDS011;8803;48.116;11.590;2023-11-21T07:55:00;1.00;;;0.80;;
17372;SDS011;8803;48.116;11.590;2023-11-21T07:57:06;1.30;;;0.77;;
17372;SDS011;8803;48.116;11.590;2023-11-21T07:59:12;1.97;;;0.67;;
17372;SDS011;8803;48.116;11.590;2023-11-21T08:01:25;1.50;;;0.90;;
17372;SDS011;8803;48.116;11.590;2023-11-21T08:03:30;1.87;;;0.87;;
17372;SDS011;8803;48.116;11.590;2023-11-21T08:07:46;0.77;;;0.70;;
17372;SDS011;8803;48.116;11.590;2023-11-21T08:09:59;0.90;;;0.60;;
17372;SDS011;8803;48.116;11.590;2023-11-21T08:12:05;1.03;;;0.97;;
17372;SDS011;8803;48.116;11.590;2023-11-21T08:14:12;0.50;;;0.50;;
17372;SDS011;8803;48.116;11.590;2023-11-21T08:16:25;0.50;;;0.50;;
17372;SDS011;8803;48.116;11.590;2023-11-21T08:18:29;0.70;;;0.60;;
17372;SDS011;8803;48.116;11.590;2023-11-21T08:20:34;1.63;;;0.70;;
17372;SDS011;8803;48.116;11.590;2023-11-21T08:22:40;1.30;;;0.80;;
17372;SDS011;8803;48.116;11.590;2023-11-21T08:24:45;1.00;;;0.80;;
17372;SDS011;8803;48.116;11.590;2023-11-21T08:26:49;1.80;;;0.83;;
17372;SDS011;8803;48.116;11.590;2023-11-21T08:29:02;1.33;;;0.93;;
17372;SDS011;8803;48.116;11.590;2023-11-21T08:31:08;1.20;;;0.70;;
17372;SDS011;8803;48.116;11.590;2023-11-21T08:33:12;1.27;;;0.63;;
17372;SDS011;8803;48.116;11.590;2023-11-21T08:35:17;1.10;;;0.80;;
17372;SDS011;8803;48.116;11.590;2023-11-21T08:37:22;1.57;;;1.07;;
17372;SDS011;8803;48.116;11.590;2023-11-21T08:39:28;1.80;;;0.80;;
17372;SDS011;8803;48.116;11.590;2023-11-21T08:41:32;1.40;;;1.00;;
17372;SDS011;8803;48.116;11.590;2023-11-21T08:43:38;2.07;;;0.90;;
17372;SDS011;8803;48.116;11.590;2023-11-21T08:45:50;1.33;;;0.87;;
17372;SDS011;8803;48.116;11.590;2023-11-21T08:47:55;2.23;;;1.17;;
17372;SDS011;8803;48.116;11.590;2023-11-21T08:49:59;1.07;;;0.90;;
17372;SDS011;8803;48.116;11.590;2023-11-21T08:52:04;1.17;;;1.03;;
17372;SDS011;8803;48.116;11.590;2023-11-21T08:54:20;2.63;;;1.20;;
17372;SDS011;8803;48.116;11.590;2023-11-21T08:56:24;2.60;;;1.00;;
17372;SDS011;8803;48.116;11.590;2023-11-21T08:58:37;1.80;;;0.90;;
17372;SDS011;8803;48.116;11.590;2023-11-21T09:00:42;2.57;;;1.30;;
17372;SDS011;8803;48.116;11.590;2023-11-21T09:02:47;1.63;;;1.10;;
17372;SDS011;8803;48.116;11.590;2023-11-21T09:04:51;2.17;;;1.00;;
17372;SDS011;8803;48.116;11.590;2023-11-21T09:06:56;1.83;;;1.00;;
17372;SDS011;8803;48.116;11.590;2023-11-21T09:09:01;2.80;;;1.30;;
17372;SDS011;8803;48.116;11.590;2023-11-21T09:11:07;2.70;;;1.50;;
17372;SDS011;8803;48.116;11.590;2023-11-21T09:13:11;1.37;;;1.00;;
17372;SDS011;8803;48.116;11.590;2023-11-21T09:15:18;1.73;;;1.10;;
17372;SDS011;8803;48.116;11.590;2023-11-21T09:17:22;1.67;;;1.20;;
17372;SDS011;8803;48.116;11.590;2023-11-21T09:19:26;3.30;;;1.00;;
17372;SDS011;8803;48.116;11.590;2023-11-21T09:21:32;1.30;;;0.67;;
17372;SDS011;8803;48.116;11.590;2023-11-21T09:23:44;1.13;;;0.70;;
17372;SDS011;8803;48.116;11.590;2023-11-21T09:25:49;1.63;;;0.97;;
17372;SDS011;8803;48.116;11.590;2023-11-21T09:27:55;2.90;;;1.03;;
17372;SDS011;8803;48.116;11.590;2023-11-21T09:30:00;1.30;;;1.00;;
17372;SDS011;8803;48.116;11.590;2023-11-21T09:32:06;3.70;;;1.10;;
17372;SDS011;8803;48.116;11.590;2023-11-21T09:34:12;1.43;;;0.83;;
17372;SDS011;8803;48.116;11.590;2023-11-21T09:36:33;4.37;;;1.03;;
17372;SDS011;8803;48.116;11.590;2023-11-21T09:38:39;2.67;;;1.20;;
17372;SDS011;8803;48.116;11.590;2023-11-21T09:40:44;2.97;;;0.90;;
17372;SDS011;8803;48.116;11.590;2023-11-21T09:42:57;1.67;;;1.10;;
17372;SDS011;8803;48.116;11.590;2023-11-21T09:45:03;2.30;;;1.10;;
17372;SDS011;8803;48.116;11.590;2023-11-21T09:47:18;2.33;;;1.00;;
17372;SDS011;8803;48.116;11.590;2023-11-21T09:49:23;4.63;;;1.00;;
17372;SDS011;8803;48.116;11.590;2023-11-21T09:51:37;1.50;;;1.00;;
17372;SDS011;8803;48.116;11.590;2023-11-21T09:53:44;1.83;;;0.90;;
17372;SDS011;8803;48.116;11.590;2023-11-21T09:55:51;1.07;;;0.80;;
17372;SDS011;8803;48.116;11.590;2023-11-21T09:57:57;2.03;;;0.90;;
17372;SDS011;8803;48.116;11.590;2023-11-21T10:00:02;1.40;;;0.70;;
17372;SDS011;8803;48.116;11.590;2023-11-21T10:02:12;0.90;;;0.80;;
17372;SDS011;8803;48.116;11.590;2023-11-21T10:04:18;2.20;;;1.13;;
17372;SDS011;8803;48.116;11.590;2023-11-21T10:06:22;2.63;;;1.00;;
17372;SDS011;8803;48.116;11.590;2023-11-21T10:08:28;1.73;;;0.90;;
17372;SDS011;8803;48.116;11.590;2023-11-21T10:10:34;1.60;;;0.90;;
17372;SDS011;8803;48.116;11.590;2023-11-21T10:12:41;2.07;;;1.17;;
17372;SDS011;8803;48.116;11.590;2023-11-21T10:14:48;3.87;;;1.40;;
17372;SDS011;8803;48.116;11.590;2023-11-21T10:16:53;0.90;;;0.77;;
17372;SDS011;8803;48.116;11.590;2023-11-21T10:18:59;3.27;;;1.10;;
17372;SDS011;8803;48.116;11.590;2023-11-21T10:21:04;1.87;;;1.13;;
17372;SDS011;8803;48.116;11.590;2023-11-21T10:23:10;2.70;;;1.00;;
17372;SDS011;8803;48.116;11.590;2023-11-21T10:25:23;1.37;;;1.00;;
17372;SDS011;8803;48.116;11.590;2023-11-21T10:27:28;3.43;;;1.50;;
17372;SDS011;8803;48.116;11.590;2023-11-21T10:29:32;2.07;;;1.37;;
17372;SDS011;8803;48.116;11.590;2023-11-21T10:31:45;2.67;;;1.27;;
17372;SDS011;8803;48.116;11.590;2023-11-21T10:33:54;2.80;;;1.30;;
17372;SDS011;8803;48.116;11.590;2023-11-21T10:36:00;1.43;;;0.97;;
17372;SDS011;8803;48.116;11.590;2023-11-21T10:38:04;2.17;;;0.90;;
17372;SDS011;8803;48.116;11.590;2023-11-21T10:40:11;3.27;;;1.03;;
17372;SDS011;8803;48.116;11.590;2023-11-21T10:42:15;1.70;;;0.97;;
17372;SDS011;8803;48.116;11.590;2023-11-21T10:44:30;2.83;;;0.80;;
17372;SDS011;8803;48.116;11.590;2023-11-21T10:46:34;2.27;;;1.20;;
17372;SDS011;8803;48.116;11.590;2023-11-21T10:48:39;2.17;;;1.10;;
17372;SDS011;8803;48.116;11.590;2023-11-21T10:50:45;1.43;;;0.87;;
17372;SDS011;8803;48.116;11.590;2023-11-21T10:52:50;2.60;;;0.90;;
17372;SDS011;8803;48.116;11.590;2023-11-21T10:54:55;1.37;;;0.97;;
17372;SDS011;8803;48.116;11.590;2023-11-21T10:57:00;1.70;;;0.90;;
17372;SDS011;8803;48.116;11.590;2023-11-21T10:59:06;2.27;;;1.13;;
17372;SDS011;8803;48.116;11.590;2023-11-21T11:01:15;2.33;;;1.30;;
17372;SDS011;8803;48.116;11.590;2023-11-21T11:03:23;2.13;;;1.40;;
17372;SDS011;8803;48.116;11.590;2023-11-21T11:05:29;3.20;;;1.00;;
17372;SDS011;8803;48.116;11.590;2023-11-21T11:07:34;3.80;;;0.97;;
17372;SDS011;8803;48.116;11.590;2023-11-21T11:09:39;2.73;;;1.47;;
17372;SDS011;8803;48.116;11.590;2023-11-21T11:11:46;1.30;;;0.90;;
17372;SDS011;8803;48.116;11.590;2023-11-21T11:13:50;1.93;;;1.40;;
17372;SDS011;8803;48.116;11.590;2023-11-21T11:15:57;0.97;;;0.90;;
17372;SDS011;8803;48.116;11.590;2023-11-21T11:18:03;2.73;;;1.30;;
17372;SDS011;8803;48.116;11.590;2023-11-21T11:20:09;2.03;;;1.40;;
17372;SDS011;8803;48.116;11.590;2023-11-21T11:22:28;2.40;;;0.93;;
17372;SDS011;8803;48.116;11.590;2023-11-21T11:27:28;4.63;;;1.50;;
17372;SDS011;8803;48.116;11.590;2023-11-21T11:29:39;2.53;;;1.30;;
17372;SDS011;8803;48.116;11.590;2023-11-21T11:31:55;1.00;;;0.90;;
17372;SDS011;8803;48.116;11.590;2023-11-21T11:34:08;1.37;;;1.10;;
17372;SDS011;8803;48.116;11.590;2023-11-21T11:36:26;3.17;;;1.23;;
17372;SDS011;8803;48.116;11.590;2023-11-21T11:38:31;1.13;;;1.03;;
17372;SDS011;8803;48.116;11.590;2023-11-21T11:40:40;2.80;;;1.00;;
17372;SDS011;8803;48.116;11.590;2023-11-21T11:42:57;2.03;;;1.10;;
17372;SDS011;8803;48.116;11.590;2023-11-21T11:45:06;3.37;;;1.30;;
17372;SDS011;8803;48.116;11.590;2023-11-21T11:47:30;1.20;;;0.90;;
17372;SDS011;8803;48.116;11.590;2023-11-21T11:49:35;1.00;;;0.90;;
17372;SDS011;8803;48.116;11.590;2023-11-21T11:51:40;3.73;;;1.23;;
17372;SDS011;8803;48.116;11.590;2023-11-21T11:53:45;1.73;;;1.40;;
17372;SDS011;8803;48.116;11.590;2023-11-21T11:55:58;1.87;;;1.20;;
17372;SDS011;8803;48.116;11.590;2023-11-21T11:58:23;1.10;;;1.00;;
17372;SDS011;8803;48.116;11.590;2023-11-21T12:00:34;1.30;;;1.00;;
17372;SDS011;8803;48.116;11.590;2023-11-21T12:02:41;1.53;;;1.27;;
17372;SDS011;8803;48.116;11.590;2023-11-21T12:04:47;1.13;;;1.03;;
17372;SDS011;8803;48.116;11.590;2023-11-21T12:07:00;1.43;;;0.97;;
17372;SDS011;8803;48.116;11.590;2023-11-21T12:09:05;1.83;;;1.17;;
17372;SDS011;8803;48.116;11.590;2023-11-21T12:11:13;2.80;;;1.40;;
17372;SDS011;8803;48.116;11.590;2023-11-21T12:13:19;1.50;;;1.40;;
17372;SDS011;8803;48.116;11.590;2023-11-21T12:15:24;3.80;;;1.43;;
17372;SDS011;8803;48.116;11.590;2023-11-21T12:17:38;1.20;;;1.07;;
17372;SDS011;8803;48.116;11.590;2023-11-21T12:19:44;2.07;;;1.10;;
17372;SDS011;8803;48.116;11.590;2023-11-21T12:21:49;1.83;;;1.03;;
17372;SDS011;8803;48.116;11.590;2023-11-21T12:23:53;1.87;;;1.07;;
17372;SDS011;8803;48.116;11.590;2023-11-21T12:25:58;1.30;;;0.97;;
17372;SDS011;8803;48.116;11.590;2023-11-21T12:28:03;1.60;;;1.20;;
17372;SDS011;8803;48.116;11.590;2023-11-21T12:30:16;1.40;;;1.00;;
17372;SDS011;8803;48.116;11.590;2023-11-21T12:32:23;1.97;;;1.17;;
17372;SDS011;8803;48.116;11.590;2023-11-21T12:34:28;1.10;;;1.00;;
17372;SDS011;8803;48.116;11.590;2023-11-21T12:36:32;2.40;;;0.90;;
17372;SDS011;8803;48.116;11.590;2023-11-21T12:38:37;2.53;;;0.90;;
17372;SDS011;8803;48.116;11.590;2023-11-21T12:40:41;1.33;;;0.80;;
17372;SDS011;8803;48.116;11.590;2023-11-21T12:42:47;1.73;;;1.00;;
17372;SDS011;8803;48.116;11.590;2023-11-21T12:45:06;1.23;;;0.90;;
17372;SDS011;8803;48.116;11.590;2023-11-21T12:47:17;2.03;;;1.00;;
17372;SDS011;8803;48.116;11.590;2023-11-21T12:49:22;1.77;;;0.73;;
17372;SDS011;8803;48.116;11.590;2023-11-21T12:51:27;3.73;;;0.80;;